createdAt,value
2018-03-22T00:00:14.524Z,3.32
2018-03-22T00:05:32.423Z,3.19
2018-03-22T00:07:59.919Z,3.24
2018-03-22T00:10:27.377Z,3.13
2018-03-22T00:12:54.846Z,3.13
2018-03-22T00:15:22.335Z,3.13
2018-03-22T00:17:49.798Z,3.07
2018-03-22T00:20:17.287Z,3.05
2018-03-22T00:22:44.737Z,3.06
2018-03-22T00:25:12.201Z,3.10
2018-03-22T00:27:39.649Z,3.01
2018-03-22T00:30:07.164Z,3.03
2018-03-22T00:32:34.619Z,2.99
2018-03-22T00:35:02.091Z,2.95
2018-03-22T00:37:29.545Z,2.90
2018-03-22T00:39:57.090Z,2.87
2018-03-22T00:42:24.549Z,2.69
2018-03-22T00:44:52.022Z,2.59
2018-03-22T00:47:19.499Z,2.51
2018-03-22T00:49:46.978Z,2.49
2018-03-22T00:52:14.434Z,2.46
2018-03-22T00:54:41.916Z,2.47
2018-03-22T00:57:09.360Z,2.51
2018-03-22T00:59:36.832Z,2.55
2018-03-22T01:02:04.285Z,2.46
2018-03-22T01:04:31.753Z,2.52
2018-03-22T01:06:59.205Z,2.52
2018-03-22T01:09:26.682Z,2.52
2018-03-22T01:11:54.135Z,2.40
2018-03-22T01:14:21.614Z,2.42
2018-03-22T01:16:49.077Z,2.32
2018-03-22T01:19:16.567Z,2.28
2018-03-22T01:21:44.051Z,2.26
2018-03-22T01:24:11.522Z,2.18
2018-03-22T01:26:38.980Z,2.10
2018-03-22T01:29:06.445Z,2.09
2018-03-22T01:31:33.901Z,2.02
2018-03-22T01:34:01.385Z,1.84
2018-03-22T01:36:28.893Z,1.79
2018-03-22T01:38:56.370Z,1.74
2018-03-22T01:41:23.824Z,1.91
2018-03-22T01:43:51.294Z,1.89
2018-03-22T01:46:18.739Z,1.84
2018-03-22T01:48:46.221Z,1.83
2018-03-22T01:51:13.676Z,1.86
2018-03-22T01:53:41.144Z,1.84
2018-03-22T01:56:08.615Z,1.87
2018-03-22T01:58:36.934Z,1.87
2018-03-22T02:01:04.391Z,1.84
2018-03-22T02:03:31.865Z,1.83
2018-03-22T02:05:59.321Z,1.77
2018-03-22T02:08:26.798Z,1.74
2018-03-22T02:10:54.253Z,1.75
2018-03-22T02:13:21.741Z,1.69
2018-03-22T02:15:49.204Z,1.76
2018-03-22T02:18:16.685Z,1.65
2018-03-22T02:20:44.165Z,1.70
2018-03-22T02:23:11.638Z,1.60
2018-03-22T02:25:39.089Z,1.61
2018-03-22T02:28:06.588Z,1.56
2018-03-22T02:30:34.036Z,1.47
2018-03-22T02:33:01.502Z,1.47
2018-03-22T02:35:28.964Z,1.50
2018-03-22T02:37:56.461Z,1.49
2018-03-22T02:40:23.928Z,1.42
2018-03-22T02:42:51.427Z,1.37
2018-03-22T02:45:18.854Z,1.47
2018-03-22T02:47:46.343Z,1.45
2018-03-22T02:50:13.812Z,1.42
2018-03-22T02:52:41.291Z,1.47
2018-03-22T02:55:08.749Z,1.51
2018-03-22T02:57:36.213Z,1.49
2018-03-22T03:00:03.660Z,1.45
2018-03-22T03:02:31.125Z,1.49
2018-03-22T03:04:58.581Z,1.46
2018-03-22T03:07:26.050Z,1.50
2018-03-22T03:09:53.510Z,1.49
2018-03-22T03:12:20.969Z,1.50
2018-03-22T03:14:48.453Z,1.50
2018-03-22T03:17:15.905Z,1.45
2018-03-22T03:19:43.360Z,1.50
2018-03-22T03:22:10.832Z,1.59
2018-03-22T03:24:38.298Z,1.57
2018-03-22T03:27:05.766Z,1.60
2018-03-22T03:29:33.216Z,1.53
2018-03-22T03:32:00.736Z,1.59
2018-03-22T03:34:28.177Z,1.50
2018-03-22T03:36:55.653Z,1.58
2018-03-22T03:39:23.109Z,1.55
2018-03-22T03:41:50.569Z,1.61
2018-03-22T03:44:18.024Z,1.64
2018-03-22T03:46:45.491Z,1.70
2018-03-22T03:49:12.941Z,1.63
2018-03-22T03:51:40.399Z,1.67
2018-03-22T03:54:07.894Z,1.72
2018-03-22T03:56:35.362Z,1.68
2018-03-22T03:59:02.813Z,1.68
2018-03-22T04:01:30.288Z,1.65
2018-03-22T04:03:57.731Z,1.69
2018-03-22T04:06:25.201Z,1.60
2018-03-22T04:08:52.712Z,1.57
2018-03-22T04:11:20.177Z,1.58
2018-03-22T04:13:47.641Z,1.64
2018-03-22T04:16:15.125Z,1.67
2018-03-22T04:18:42.578Z,1.73
2018-03-22T04:21:10.044Z,1.76
2018-03-22T04:23:37.510Z,1.83
2018-03-22T04:26:05.005Z,1.85
2018-03-22T04:28:32.461Z,1.89
2018-03-22T04:30:59.912Z,1.89
2018-03-22T04:33:27.377Z,1.90
2018-03-22T04:35:54.834Z,1.94
2018-03-22T04:38:22.301Z,1.92
2018-03-22T04:40:49.753Z,1.93
2018-03-22T04:43:17.241Z,2.00
2018-03-22T04:45:44.700Z,2.10
2018-03-22T04:48:12.219Z,2.05
2018-03-22T04:50:39.675Z,2.13
2018-03-22T04:53:07.149Z,2.13
2018-03-22T04:55:34.601Z,2.16
2018-03-22T04:58:02.108Z,2.22
2018-03-22T05:00:29.576Z,2.30
2018-03-22T05:02:57.064Z,2.28
2018-03-22T05:05:24.525Z,2.31
2018-03-22T05:07:52.002Z,2.41
2018-03-22T05:10:19.466Z,2.49
2018-03-22T05:12:46.945Z,2.51
2018-03-22T05:15:14.401Z,2.58
2018-03-22T05:17:41.877Z,2.57
2018-03-22T05:20:09.356Z,2.64
2018-03-22T05:22:36.825Z,2.63
2018-03-22T05:25:04.286Z,2.67
2018-03-22T05:27:31.756Z,2.72
2018-03-22T05:32:50.486Z,2.84
2018-03-22T05:35:17.927Z,2.86
2018-03-22T05:37:45.373Z,2.92
2018-03-22T05:40:12.850Z,2.99
2018-03-22T05:42:40.311Z,3.09
2018-03-22T05:45:07.791Z,3.05
2018-03-22T05:47:35.244Z,3.11
2018-03-22T05:50:02.709Z,3.20
2018-03-22T05:52:30.165Z,3.24
2018-03-22T05:54:57.632Z,3.33
2018-03-22T05:57:25.085Z,3.34
2018-03-22T05:59:52.553Z,3.43
2018-03-22T06:02:20.032Z,3.40
2018-03-22T06:04:47.493Z,3.45
2018-03-22T06:07:14.965Z,3.49
2018-03-22T06:09:42.462Z,3.57
2018-03-22T06:12:09.954Z,3.55
2018-03-22T06:14:37.461Z,3.69
2018-03-22T06:17:05.958Z,3.70
2018-03-22T06:19:33.455Z,3.71
2018-03-22T06:22:00.914Z,3.68
2018-03-22T06:24:28.422Z,3.69
2018-03-22T06:26:55.922Z,3.66
2018-03-22T06:29:23.397Z,3.71
2018-03-22T06:31:50.870Z,3.77
2018-03-22T06:34:18.317Z,3.69
2018-03-22T06:36:45.777Z,3.70
2018-03-22T06:39:13.234Z,3.79
2018-03-22T06:41:40.709Z,3.72
2018-03-22T06:44:09.179Z,3.78
2018-03-22T06:46:36.654Z,3.74
2018-03-22T06:49:04.113Z,3.76
2018-03-22T06:51:31.590Z,3.85
2018-03-22T06:53:59.047Z,3.88
2018-03-22T06:56:27.493Z,3.83
2018-03-22T06:58:54.976Z,3.77
2018-03-22T07:01:23.429Z,3.86
2018-03-22T07:03:50.882Z,3.84
2018-03-22T07:06:18.346Z,3.93
2018-03-22T07:08:45.830Z,3.96
2018-03-22T07:11:13.319Z,4.00
2018-03-22T07:13:40.838Z,4.00
2018-03-22T07:16:08.589Z,3.90
2018-03-22T07:18:36.051Z,3.98
2018-03-22T07:21:03.613Z,4.14
2018-03-22T07:23:31.086Z,4.20
2018-03-22T07:25:59.555Z,4.18
2018-03-22T07:28:26.988Z,4.17
2018-03-22T07:30:54.460Z,4.27
2018-03-22T07:33:21.920Z,4.39
2018-03-22T07:35:49.385Z,4.42
2018-03-22T07:38:16.944Z,4.54
2018-03-22T07:40:44.409Z,4.58
2018-03-22T07:43:17.437Z,4.62
2018-03-22T07:45:44.897Z,4.60
2018-03-22T07:48:12.354Z,4.67
2018-03-22T07:50:39.826Z,4.76
2018-03-22T07:53:07.289Z,4.70
2018-03-22T07:55:34.761Z,4.76
2018-03-22T07:58:02.206Z,4.82
2018-03-22T08:00:29.674Z,4.88
2018-03-22T08:03:00.944Z,5.07
2018-03-22T08:05:28.401Z,4.86
2018-03-22T08:07:55.934Z,4.96
2018-03-22T08:10:23.497Z,4.92
2018-03-22T08:12:50.960Z,4.94
2018-03-22T08:15:18.431Z,4.96
2018-03-22T08:17:45.878Z,5.01
2018-03-22T08:20:13.344Z,5.07
2018-03-22T08:22:40.793Z,5.10
2018-03-22T08:25:08.344Z,5.08
2018-03-22T08:27:35.797Z,5.28
2018-03-22T08:30:03.253Z,5.40
2018-03-22T08:32:30.709Z,5.41
2018-03-22T08:34:58.169Z,5.39
2018-03-22T08:37:25.615Z,5.55
2018-03-22T08:39:53.084Z,5.40
2018-03-22T08:42:20.537Z,5.46
2018-03-22T08:44:48.088Z,5.49
2018-03-22T08:47:15.552Z,5.73
2018-03-22T08:49:43.009Z,5.60
2018-03-22T08:52:10.452Z,5.52
2018-03-22T08:54:37.908Z,5.59
2018-03-22T08:57:05.345Z,5.62
2018-03-22T08:59:32.810Z,5.66
2018-03-22T09:02:00.258Z,5.82
2018-03-22T09:04:27.718Z,5.78
2018-03-22T09:06:55.173Z,5.77
2018-03-22T09:09:22.679Z,5.85
2018-03-22T09:11:51.020Z,5.81
2018-03-22T09:14:18.502Z,5.85
2018-03-22T09:16:45.944Z,6.15
2018-03-22T09:19:13.417Z,6.10
2018-03-22T09:21:40.879Z,6.11
2018-03-22T09:24:08.349Z,6.22
2018-03-22T09:26:35.792Z,6.00
2018-03-22T09:29:03.253Z,5.82
2018-03-22T09:31:30.697Z,6.15
2018-03-22T09:33:58.141Z,6.22
2018-03-22T09:36:25.613Z,6.12
2018-03-22T09:38:53.162Z,6.08
2018-03-22T09:41:20.630Z,6.20
2018-03-22T09:43:48.089Z,6.38
2018-03-22T09:46:15.549Z,6.41
2018-03-22T09:48:42.991Z,6.28
2018-03-22T09:51:10.497Z,6.27
2018-03-22T09:53:37.914Z,6.49
2018-03-22T09:56:05.379Z,6.57
2018-03-22T09:58:32.825Z,6.50
2018-03-22T10:01:00.284Z,6.42
2018-03-22T10:03:27.733Z,6.45
2018-03-22T10:05:55.192Z,6.53
2018-03-22T10:08:22.634Z,6.38
2018-03-22T10:10:50.092Z,6.37
2018-03-22T10:13:17.536Z,6.54
2018-03-22T10:15:44.994Z,7.17
2018-03-22T10:18:12.437Z,7.46
2018-03-22T10:20:39.909Z,7.34
2018-03-22T10:23:07.365Z,7.08
2018-03-22T10:25:34.830Z,7.10
2018-03-22T10:28:02.300Z,7.02
2018-03-22T10:30:30.773Z,6.70
2018-03-22T10:32:59.244Z,6.78
2018-03-22T10:35:26.707Z,7.13
2018-03-22T10:37:54.170Z,7.26
2018-03-22T10:40:21.647Z,6.84
2018-03-22T10:42:49.113Z,7.09
2018-03-22T10:45:16.553Z,7.33
2018-03-22T10:47:44.013Z,7.66
2018-03-22T10:50:11.467Z,7.47
2018-03-22T10:52:38.940Z,7.79
2018-03-22T10:55:06.538Z,7.82
2018-03-22T10:57:34.016Z,7.41
2018-03-22T11:00:01.561Z,7.45
2018-03-22T11:02:34.730Z,7.55
2018-03-22T11:05:02.181Z,7.61
2018-03-22T11:07:29.661Z,7.93
2018-03-22T11:09:57.113Z,7.83
2018-03-22T11:12:24.609Z,7.92
2018-03-22T11:14:52.077Z,8.28
2018-03-22T11:17:19.568Z,7.52
2018-03-22T11:19:48.046Z,7.79
2018-03-22T11:22:15.382Z,8.50
2018-03-22T11:24:42.828Z,8.63
2018-03-22T11:27:10.284Z,8.26
2018-03-22T11:29:37.748Z,8.09
2018-03-22T11:32:05.224Z,8.45
2018-03-22T11:34:32.694Z,8.50
2018-03-22T11:37:00.169Z,8.23
2018-03-22T11:39:27.621Z,8.35
2018-03-22T11:41:55.116Z,8.16
2018-03-22T11:44:22.570Z,8.58
2018-03-22T11:46:50.037Z,8.19
2018-03-22T11:49:17.498Z,7.68
2018-03-22T11:51:44.994Z,7.63
2018-03-22T11:54:12.461Z,7.39
2018-03-22T11:56:39.930Z,7.74
2018-03-22T11:59:07.506Z,8.17
2018-03-22T12:01:34.982Z,8.11
2018-03-22T12:04:02.537Z,8.24
2018-03-22T12:06:30.986Z,8.38
2018-03-22T12:15:54.741Z,8.34
2018-03-22T12:18:22.194Z,8.48
2018-03-22T12:20:50.646Z,8.49
2018-03-22T12:23:18.118Z,8.73
2018-03-22T12:25:45.684Z,8.39
2018-03-22T12:28:13.159Z,8.45
2018-03-22T12:30:40.670Z,9.06
2018-03-22T12:33:08.133Z,9.01
2018-03-22T12:35:35.618Z,9.31
2018-03-22T12:38:03.069Z,8.64
2018-03-22T12:40:30.526Z,8.31
2018-03-22T12:42:57.997Z,8.24
2018-03-22T12:45:25.441Z,8.39
2018-03-22T12:47:52.908Z,8.13
2018-03-22T12:50:21.350Z,8.16
2018-03-22T12:52:48.816Z,8.08
2018-03-22T12:55:16.304Z,8.12
2018-03-22T12:57:43.764Z,7.71
2018-03-22T13:00:11.238Z,7.80
2018-03-22T13:02:38.758Z,7.98
2018-03-22T13:05:06.219Z,8.38
2018-03-22T13:07:33.699Z,8.86
2018-03-22T13:10:01.154Z,8.67
2018-03-22T13:12:28.620Z,8.62
2018-03-22T13:14:57.024Z,9.73
2018-03-22T13:17:25.433Z,9.52
2018-03-22T13:19:53.784Z,10.04
2018-03-22T13:22:21.240Z,10.00
2018-03-22T13:24:48.684Z,9.93
2018-03-22T13:27:17.040Z,9.85
2018-03-22T13:29:45.398Z,10.07
2018-03-22T13:32:12.856Z,9.61
2018-03-22T13:34:40.291Z,9.82
2018-03-22T13:37:07.735Z,9.55
2018-03-22T13:39:35.205Z,9.82
2018-03-22T13:42:02.660Z,9.36
2018-03-22T13:44:31.046Z,9.13
2018-03-22T13:46:58.496Z,8.91
2018-03-22T13:49:25.960Z,8.19
2018-03-22T13:51:53.441Z,8.45
2018-03-22T13:54:22.890Z,8.61
2018-03-22T13:56:50.360Z,8.54
2018-03-22T13:59:17.846Z,8.48
2018-03-22T14:01:46.302Z,8.45
2018-03-22T14:04:14.761Z,8.03
2018-03-22T14:06:42.234Z,8.15
2018-03-22T14:09:09.693Z,8.07
2018-03-22T14:11:38.186Z,8.01
2018-03-22T14:14:05.644Z,7.91
2018-03-22T14:16:35.249Z,7.81
2018-03-22T14:19:02.821Z,7.92
2018-03-22T14:21:30.322Z,7.85
2018-03-22T14:23:57.781Z,7.63
2018-03-22T14:26:25.289Z,7.70
2018-03-22T14:28:52.751Z,7.80
2018-03-22T14:31:20.365Z,7.87
2018-03-22T14:33:48.766Z,7.67
2018-03-22T14:36:16.346Z,7.58
2018-03-22T14:38:43.972Z,7.26
2018-03-22T14:41:11.389Z,7.05
2018-03-22T14:43:39.009Z,6.99
2018-03-22T14:46:06.462Z,7.12
2018-03-22T14:48:34.072Z,7.04
2018-03-22T14:51:01.627Z,7.02
2018-03-22T14:53:29.096Z,7.01
2018-03-22T14:55:56.611Z,7.13
2018-03-22T14:58:24.069Z,6.98
2018-03-22T15:00:52.511Z,7.02
2018-03-22T15:03:19.981Z,7.10
2018-03-22T15:05:47.424Z,7.20
2018-03-22T15:08:14.957Z,7.37
2018-03-22T15:10:42.365Z,7.25
2018-03-22T15:13:09.829Z,7.38
2018-03-22T15:15:37.280Z,7.43
2018-03-22T15:18:04.742Z,7.43
2018-03-22T15:20:32.193Z,7.62
2018-03-22T15:22:59.782Z,7.70
2018-03-22T15:25:27.334Z,7.75
2018-03-22T15:27:54.798Z,7.85
2018-03-22T15:30:22.294Z,7.82
2018-03-22T15:32:49.905Z,7.92
2018-03-22T15:35:17.366Z,7.84
2018-03-22T15:37:44.922Z,7.81
2018-03-22T15:40:12.381Z,7.75
2018-03-22T15:42:39.860Z,7.72
2018-03-22T15:45:08.273Z,7.72
2018-03-22T15:47:35.737Z,7.70
2018-03-22T15:50:03.215Z,7.53
2018-03-22T15:52:30.670Z,7.52
2018-03-22T15:54:58.142Z,7.61
2018-03-22T15:57:25.589Z,7.60
2018-03-22T15:59:53.060Z,7.56
2018-03-22T16:02:20.509Z,7.47
2018-03-22T16:04:48.951Z,7.68
2018-03-22T16:07:16.431Z,7.70
2018-03-22T16:09:43.895Z,7.70
2018-03-22T16:12:11.362Z,7.61
2018-03-22T16:14:38.924Z,7.57
2018-03-22T16:17:06.400Z,7.60
2018-03-22T16:19:35.873Z,7.62
2018-03-22T16:22:03.339Z,7.51
2018-03-22T16:24:30.801Z,7.24
2018-03-22T16:27:00.186Z,7.43
2018-03-22T16:29:27.645Z,7.50
2018-03-22T16:31:55.112Z,7.35
2018-03-22T16:34:22.572Z,7.47
2018-03-22T16:36:50.061Z,7.50
2018-03-22T16:39:18.226Z,7.54
2018-03-22T16:41:46.685Z,7.67
2018-03-22T16:44:14.234Z,7.66
2018-03-22T16:46:41.689Z,7.55
2018-03-22T16:49:09.157Z,7.48
2018-03-22T16:51:36.605Z,7.47
2018-03-22T16:54:04.073Z,7.64
2018-03-22T16:56:31.542Z,7.66
2018-03-22T16:58:59.927Z,7.60
2018-03-22T17:01:27.392Z,7.41
2018-03-22T17:03:54.880Z,7.54
2018-03-22T17:06:22.358Z,7.38
2018-03-22T17:08:49.824Z,7.31
2018-03-22T17:11:17.287Z,7.38
2018-03-22T17:13:44.757Z,7.42
2018-03-22T17:16:12.217Z,7.37
2018-03-22T17:18:39.693Z,7.26
2018-03-22T17:21:07.149Z,7.27
2018-03-22T17:23:35.572Z,7.37
2018-03-22T17:26:03.045Z,7.18
2018-03-22T17:28:30.509Z,7.06
2018-03-22T17:30:57.975Z,7.16
2018-03-22T17:33:25.465Z,7.27
2018-03-22T17:35:52.932Z,7.29
2018-03-22T17:38:20.417Z,7.45
2018-03-22T17:40:48.882Z,7.52
2018-03-22T17:43:16.365Z,7.31
2018-03-22T17:45:43.821Z,7.07
2018-03-22T17:48:11.297Z,7.15
2018-03-22T17:50:40.680Z,7.17
2018-03-22T17:53:08.153Z,7.30
2018-03-22T17:55:35.614Z,7.35
2018-03-22T17:58:03.082Z,7.04
2018-03-22T18:00:30.553Z,6.88
2018-03-22T18:02:58.033Z,6.79
2018-03-22T18:05:26.461Z,6.77
2018-03-22T18:07:53.933Z,6.84
2018-03-22T18:10:23.388Z,7.11
2018-03-22T18:12:51.753Z,7.04
2018-03-22T18:15:19.207Z,7.05
2018-03-22T18:17:46.791Z,7.21
2018-03-22T18:20:14.292Z,7.14
2018-03-22T18:22:41.814Z,7.08
2018-03-22T18:25:09.289Z,7.03
2018-03-22T18:27:36.783Z,7.12
2018-03-22T18:30:04.254Z,7.23
2018-03-22T18:32:31.755Z,6.99
2018-03-22T18:35:00.231Z,6.79
2018-03-22T18:37:27.710Z,6.71
2018-03-22T18:39:59.038Z,6.74
2018-03-22T18:45:19.129Z,7.08
2018-03-22T18:47:46.623Z,6.91
2018-03-22T18:50:15.044Z,7.06
2018-03-22T18:52:43.466Z,7.02
2018-03-22T18:55:12.978Z,7.08
2018-03-22T18:57:40.462Z,6.99
2018-03-22T19:00:08.825Z,7.21
2018-03-22T19:02:36.323Z,6.76
2018-03-22T19:05:03.802Z,6.78
2018-03-22T19:07:31.300Z,6.64
2018-03-22T19:10:00.753Z,6.38
2018-03-22T19:12:29.257Z,6.30
2018-03-22T19:14:57.718Z,6.18
2018-03-22T19:17:26.086Z,6.03
2018-03-22T19:19:53.594Z,6.03
2018-03-22T19:22:21.057Z,6.02
2018-03-22T19:24:48.528Z,6.10
2018-03-22T19:27:15.986Z,6.02
2018-03-22T19:29:46.677Z,6.06
2018-03-22T19:32:14.156Z,5.94
2018-03-22T19:34:41.609Z,5.92
2018-03-22T19:37:10.179Z,5.92
2018-03-22T19:39:37.609Z,5.90
2018-03-22T19:42:05.071Z,5.91
2018-03-22T19:44:32.692Z,5.78
2018-03-22T19:47:00.162Z,5.78
2018-03-22T19:49:27.813Z,5.83
2018-03-22T19:51:55.286Z,5.64
2018-03-22T19:54:22.753Z,5.50
2018-03-22T19:56:50.208Z,5.63
2018-03-22T19:59:17.666Z,5.64
2018-03-22T20:01:45.124Z,5.70
2018-03-22T20:04:12.609Z,5.64
2018-03-22T20:06:40.103Z,5.56
2018-03-22T20:09:07.676Z,5.57
2018-03-22T20:11:35.121Z,5.57
2018-03-22T20:14:02.625Z,5.52
2018-03-22T20:16:30.174Z,5.56
2018-03-22T20:18:57.637Z,5.56
2018-03-22T20:21:26.125Z,5.55
2018-03-22T20:23:53.593Z,5.57
2018-03-22T20:26:21.037Z,5.53
2018-03-22T20:28:48.557Z,5.35
2018-03-22T20:31:17.034Z,5.25
2018-03-22T20:33:44.530Z,5.17
2018-03-22T20:36:12.992Z,5.18
2018-03-22T20:38:43.813Z,5.30
2018-03-22T20:41:11.281Z,5.27
2018-03-22T20:43:38.859Z,5.10
2018-03-22T20:46:06.320Z,5.21
2018-03-22T20:48:35.769Z,5.20
2018-03-22T20:51:03.221Z,5.23
2018-03-22T20:53:30.714Z,5.29
2018-03-22T20:55:58.263Z,5.42
2018-03-22T20:58:25.765Z,5.51
2018-03-22T21:00:53.229Z,5.48
2018-03-22T21:03:20.732Z,5.37
2018-03-22T21:05:48.248Z,5.32
2018-03-22T21:08:15.729Z,5.28
2018-03-22T21:10:43.181Z,5.10
2018-03-22T21:13:10.657Z,5.00
2018-03-22T21:15:38.111Z,4.93
2018-03-22T21:18:05.581Z,4.86
2018-03-22T21:20:33.031Z,4.84
2018-03-22T21:23:00.501Z,4.80
2018-03-22T21:25:27.959Z,4.79
2018-03-22T21:27:55.425Z,4.75
2018-03-22T21:30:22.962Z,4.73
2018-03-22T21:32:50.424Z,4.80
2018-03-22T21:35:17.882Z,4.80
2018-03-22T21:37:45.431Z,4.72
2018-03-22T21:40:12.987Z,4.52
2018-03-22T21:42:40.470Z,4.61
2018-03-22T21:45:08.897Z,4.64
2018-03-22T21:47:36.369Z,4.67
2018-03-22T21:50:03.821Z,4.62
2018-03-22T21:52:42.987Z,4.76
2018-03-22T21:55:13.472Z,4.60
2018-03-22T21:57:40.941Z,4.49
2018-03-22T22:00:08.429Z,4.55
2018-03-22T22:02:36.077Z,4.50
2018-03-22T22:05:03.543Z,4.49
2018-03-22T22:07:31.018Z,4.41
2018-03-22T22:09:58.484Z,4.42
2018-03-22T22:12:26.873Z,4.59
2018-03-22T22:14:55.342Z,4.61
2018-03-22T22:17:23.780Z,4.56
2018-03-22T22:19:51.240Z,4.64
2018-03-22T22:22:18.680Z,4.83
2018-03-22T22:24:46.182Z,4.63
2018-03-22T22:27:13.649Z,4.57
2018-03-22T22:29:41.125Z,4.55
2018-03-22T22:32:08.573Z,4.58
2018-03-22T22:34:36.088Z,4.53
2018-03-22T22:37:03.541Z,4.57
2018-03-22T22:39:31.097Z,4.49
2018-03-22T22:41:58.675Z,4.47
2018-03-22T22:44:26.222Z,4.71
2018-03-22T22:46:53.774Z,4.62
2018-03-22T22:49:21.237Z,4.64
2018-03-22T22:51:48.713Z,4.52
2018-03-22T22:54:16.178Z,4.74
2018-03-22T22:56:43.752Z,4.63
2018-03-22T22:59:11.194Z,4.67
2018-03-22T23:01:38.784Z,4.58
2018-03-22T23:04:06.281Z,4.45
2018-03-22T23:06:33.749Z,4.33
2018-03-22T23:09:01.231Z,4.27
2018-03-22T23:11:28.701Z,4.16
2018-03-22T23:13:56.183Z,3.83
2018-03-22T23:16:23.629Z,4.00
2018-03-22T23:18:51.092Z,4.07
2018-03-22T23:21:18.538Z,4.12
2018-03-22T23:23:46.041Z,3.98
2018-03-22T23:26:13.492Z,3.84
2018-03-22T23:28:40.985Z,3.98
2018-03-22T23:31:08.520Z,4.24
2018-03-22T23:33:36.069Z,4.13
2018-03-22T23:36:03.511Z,3.96
2018-03-22T23:38:30.973Z,3.99
2018-03-22T23:40:58.420Z,3.75
2018-03-22T23:43:25.887Z,3.89
2018-03-22T23:45:53.343Z,3.84
2018-03-22T23:48:20.917Z,3.80
2018-03-22T23:50:48.364Z,3.81
2018-03-22T23:53:15.823Z,3.85
2018-03-22T23:55:43.290Z,3.85
2018-03-22T23:58:10.752Z,3.59
